createdAt,value
2022-09-09T00:01:46.731Z,10.52
2022-09-09T00:04:31.218Z,8.60
2022-09-09T00:07:04.524Z,4.22
2022-09-09T00:09:46.724Z,4.68
2022-09-09T00:12:18.280Z,5.15
2022-09-09T00:15:03.758Z,4.85
2022-09-09T00:17:42.591Z,5.57
2022-09-09T00:20:17.541Z,4.57
2022-09-09T00:23:00.216Z,7.65
2022-09-09T00:25:37.962Z,4.45
2022-09-09T00:28:18.269Z,7.35
2022-09-09T00:30:49.212Z,7.55
2022-09-09T00:33:22.117Z,9.23
2022-09-09T00:35:55.712Z,5.22
2022-09-09T00:38:36.401Z,9.68
2022-09-09T00:41:12.861Z,6.38
2022-09-09T00:43:42.146Z,5.22
2022-09-09T00:46:34.346Z,8.40
2022-09-09T00:49:20.889Z,6.38
2022-09-09T00:52:21.230Z,3.88
2022-09-09T00:54:53.798Z,4.53
2022-09-09T00:57:30.462Z,5.35
2022-09-09T01:00:19.674Z,4.68
2022-09-09T01:03:22.933Z,3.13
2022-09-09T01:06:22.335Z,6.38
2022-09-09T01:09:23.080Z,9.68
2022-09-09T01:11:58.601Z,7.22
2022-09-09T01:14:37.560Z,4.10
2022-09-09T01:17:19.543Z,2.30
2022-09-09T01:19:53.233Z,9.73
2022-09-09T01:22:37.988Z,4.03
2022-09-09T01:25:30.960Z,5.20
2022-09-09T01:28:04.566Z,8.63
2022-09-09T01:30:32.977Z,4.45
2022-09-09T01:33:01.344Z,3.45
2022-09-09T01:35:34.038Z,5.85
2022-09-09T01:38:01.048Z,3.17
2022-09-09T01:40:27.893Z,5.18
2022-09-09T01:42:55.459Z,5.40
2022-09-09T01:45:23.527Z,4.22
2022-09-09T01:47:51.595Z,3.17
2022-09-09T01:50:18.561Z,3.17
2022-09-09T01:52:49.906Z,3.58
2022-09-09T01:55:16.938Z,7.28
2022-09-09T01:58:04.268Z,2.78
2022-09-09T02:00:32.778Z,4.13
2022-09-09T02:03:15.888Z,6.40
2022-09-09T02:05:50.088Z,5.22
2022-09-09T02:08:25.619Z,3.03
2022-09-09T02:11:07.618Z,5.22
2022-09-09T02:13:37.419Z,7.22
2022-09-09T02:18:43.087Z,7.90
2022-09-09T02:21:12.748Z,3.15
2022-09-09T02:23:42.712Z,9.60
2022-09-09T02:26:15.826Z,4.80
2022-09-09T02:28:43.400Z,5.10
2022-09-09T02:31:10.362Z,3.08
2022-09-09T02:33:52.107Z,10.10
2022-09-09T02:36:19.915Z,3.13
2022-09-09T02:38:54.000Z,5.18
2022-09-09T02:41:36.529Z,7.93
2022-09-09T02:44:06.710Z,3.42
2022-09-09T02:46:36.454Z,4.75
2022-09-09T02:51:42.043Z,3.67
2022-09-09T02:54:17.872Z,6.03
2022-09-09T02:56:52.272Z,6.68
2022-09-09T02:59:19.147Z,6.35
2022-09-09T03:01:46.087Z,4.13
2022-09-09T03:04:12.721Z,6.25
2022-09-09T03:06:39.458Z,3.92
2022-09-09T03:09:06.184Z,10.50
2022-09-09T03:11:33.148Z,4.10
2022-09-09T03:13:59.806Z,3.13
2022-09-09T03:16:26.540Z,7.68
2022-09-09T03:18:53.237Z,7.65
2022-09-09T03:21:19.898Z,6.97
2022-09-09T03:23:46.683Z,3.78
2022-09-09T03:26:15.118Z,6.60
2022-09-09T03:28:43.198Z,8.60
2022-09-09T03:31:11.363Z,7.80
2022-09-09T03:33:39.144Z,4.78
2022-09-09T03:36:06.797Z,3.92
2022-09-09T03:38:33.528Z,6.93
2022-09-09T03:41:02.270Z,5.55
2022-09-09T03:43:29.532Z,5.82
2022-09-09T03:45:59.161Z,6.13
2022-09-09T03:48:27.968Z,6.03
2022-09-09T03:50:56.808Z,5.93
2022-09-09T03:53:25.751Z,7.00
2022-09-09T03:55:55.602Z,7.35
2022-09-09T03:58:25.191Z,7.53
2022-09-09T04:01:00.008Z,12.73
2022-09-09T04:03:28.484Z,5.22
2022-09-09T04:05:56.777Z,6.85
2022-09-09T04:08:25.458Z,4.43
2022-09-09T04:10:52.780Z,7.57
2022-09-09T04:13:20.687Z,5.97
2022-09-09T04:15:58.474Z,5.90
2022-09-09T04:18:26.884Z,3.60
2022-09-09T04:20:54.759Z,5.35
2022-09-09T04:23:21.773Z,3.28
2022-09-09T04:25:49.821Z,9.10
2022-09-09T04:28:17.791Z,3.35
2022-09-09T04:30:44.952Z,6.70
2022-09-09T04:33:12.917Z,6.53
2022-09-09T04:35:40.271Z,5.68
2022-09-09T04:38:10.428Z,6.03
2022-09-09T04:40:37.156Z,5.07
2022-09-09T04:43:10.448Z,8.55
2022-09-09T04:45:41.436Z,6.22
2022-09-09T04:48:08.429Z,6.55
2022-09-09T04:50:35.316Z,2.25
2022-09-09T04:53:03.053Z,4.10
2022-09-09T04:55:29.789Z,4.75
2022-09-09T04:57:56.516Z,5.63
2022-09-09T05:00:23.094Z,6.57
2022-09-09T05:02:49.744Z,7.60
2022-09-09T05:05:17.514Z,8.32
2022-09-09T05:07:44.381Z,4.25
2022-09-09T05:10:11.758Z,7.57
2022-09-09T05:12:38.387Z,5.53
2022-09-09T05:15:05.772Z,4.63
2022-09-09T05:17:32.495Z,5.13
2022-09-09T05:19:59.692Z,7.53
2022-09-09T05:22:26.366Z,3.25
2022-09-09T05:24:52.983Z,4.50
2022-09-09T05:27:20.475Z,5.07
2022-09-09T05:29:47.625Z,5.60
2022-09-09T05:32:16.052Z,5.03
2022-09-09T05:34:42.893Z,7.65
2022-09-09T05:37:09.519Z,6.82
2022-09-09T05:39:39.103Z,5.93
2022-09-09T05:44:33.089Z,5.53
2022-09-09T05:46:59.775Z,4.78
2022-09-09T05:49:26.607Z,4.82
2022-09-09T05:51:53.845Z,7.88
2022-09-09T05:54:20.522Z,9.50
2022-09-09T05:56:51.452Z,5.00
2022-09-09T05:59:19.308Z,12.68
2022-09-09T06:01:46.509Z,6.13
2022-09-09T06:04:13.390Z,4.70
2022-09-09T06:06:40.940Z,6.63
2022-09-09T06:09:10.774Z,9.05
2022-09-09T06:11:39.633Z,6.88
2022-09-09T06:14:07.189Z,5.83
2022-09-09T06:16:34.386Z,5.55
2022-09-09T06:19:02.204Z,7.18
2022-09-09T06:21:35.238Z,4.50
2022-09-09T06:24:02.132Z,3.40
2022-09-09T06:26:37.417Z,5.32
2022-09-09T06:29:05.305Z,8.43
2022-09-09T06:31:35.296Z,6.35
2022-09-09T06:34:03.077Z,6.63
2022-09-09T06:36:32.199Z,7.05
2022-09-09T06:38:59.761Z,6.18
2022-09-09T06:41:28.739Z,13.07
2022-09-09T06:46:49.602Z,10.20
2022-09-09T06:49:16.625Z,9.25
2022-09-09T06:51:44.775Z,10.15
2022-09-09T06:54:13.363Z,12.95
2022-09-09T06:56:43.172Z,7.85
2022-09-09T06:59:10.933Z,14.93
2022-09-09T07:01:42.038Z,10.90
2022-09-09T07:04:10.213Z,10.15
2022-09-09T07:06:44.185Z,15.27
2022-09-09T07:09:13.359Z,9.52
2022-09-09T07:11:52.893Z,15.38
2022-09-09T07:14:20.677Z,13.13
2022-09-09T07:16:48.135Z,8.95
2022-09-09T07:22:07.508Z,12.00
2022-09-09T07:24:34.566Z,10.55
2022-09-09T07:27:01.502Z,13.82
2022-09-09T07:32:20.895Z,6.72
2022-09-09T07:34:48.148Z,7.60
2022-09-09T07:37:15.471Z,8.25
2022-09-09T07:39:43.314Z,13.68
2022-09-09T07:42:12.352Z,8.25
2022-09-09T07:44:40.728Z,5.97
2022-09-09T07:47:07.668Z,9.27
2022-09-09T07:49:35.350Z,5.97
2022-09-09T07:52:03.062Z,3.95
2022-09-09T07:54:30.248Z,7.25
2022-09-09T07:56:57.401Z,6.25
2022-09-09T07:59:25.368Z,6.28
2022-09-09T08:01:57.071Z,9.95
2022-09-09T08:04:26.359Z,13.77
2022-09-09T08:06:55.008Z,10.52
2022-09-09T08:09:25.964Z,7.70
2022-09-09T08:11:53.195Z,10.43
2022-09-09T08:14:20.349Z,7.00
2022-09-09T08:16:49.132Z,7.13
2022-09-09T08:19:16.488Z,9.75
2022-09-09T08:21:44.874Z,10.00
2022-09-09T08:24:13.149Z,7.47
2022-09-09T08:26:42.962Z,8.82
2022-09-09T08:29:11.738Z,5.35
2022-09-09T08:31:41.451Z,7.95
2022-09-09T08:34:09.936Z,4.30
2022-09-09T08:50:14.032Z,14.07
2022-09-09T08:52:53.384Z,12.38
2022-09-09T08:55:29.935Z,10.05
2022-09-09T09:01:11.785Z,21.95
2022-09-09T09:03:54.580Z,32.53
2022-09-09T09:06:51.230Z,35.83
2022-09-09T09:09:33.629Z,21.02
2022-09-09T09:17:47.919Z,23.42
2022-09-09T09:20:20.377Z,22.27
2022-09-09T09:25:45.943Z,18.95
2022-09-09T09:28:24.942Z,20.55
2022-09-09T09:30:53.760Z,30.92
2022-09-09T09:33:28.498Z,23.67
2022-09-09T09:35:55.707Z,15.13
2022-09-09T09:44:05.694Z,19.30
2022-09-09T09:46:33.747Z,31.98
2022-09-09T09:49:03.985Z,21.27
2022-09-09T09:51:33.526Z,16.33
2022-09-09T09:54:19.689Z,24.48
2022-09-09T09:59:41.309Z,23.00
2022-09-09T10:02:27.674Z,24.17
2022-09-09T10:05:05.498Z,32.03
2022-09-09T10:07:33.708Z,27.08
2022-09-09T10:10:00.862Z,17.55
2022-09-09T10:12:34.147Z,21.05
2022-09-09T10:15:21.157Z,16.92
2022-09-09T10:18:30.292Z,18.27
2022-09-09T10:24:54.600Z,12.05
2022-09-09T10:27:58.995Z,9.50
2022-09-09T10:31:05.144Z,10.80
2022-09-09T10:33:35.565Z,14.40
2022-09-09T10:36:12.287Z,7.63
2022-09-09T10:38:44.527Z,8.32
2022-09-09T10:44:41.832Z,8.70
2022-09-09T10:47:27.918Z,5.82
2022-09-09T10:50:18.468Z,6.78
2022-09-09T10:52:56.449Z,9.38
2022-09-09T10:55:31.882Z,9.07
2022-09-09T10:58:01.717Z,5.18
2022-09-09T11:00:43.319Z,6.97
2022-09-09T11:03:23.444Z,4.10
2022-09-09T11:06:07.121Z,4.88
2022-09-09T11:08:40.395Z,5.32
2022-09-09T11:11:28.200Z,4.93
2022-09-09T11:14:27.142Z,4.05
2022-09-09T11:16:58.936Z,5.97
2022-09-09T11:19:35.248Z,3.30
2022-09-09T11:22:22.148Z,3.60
2022-09-09T11:24:52.251Z,6.25
2022-09-09T11:27:37.276Z,6.55
2022-09-09T11:30:03.861Z,3.90
2022-09-09T11:33:00.138Z,3.67
2022-09-09T11:35:48.131Z,5.32
2022-09-09T11:38:46.851Z,6.18
2022-09-09T11:41:19.349Z,4.00
2022-09-09T11:43:53.192Z,2.40
2022-09-09T11:46:37.346Z,5.65
2022-09-09T11:49:06.807Z,4.13
2022-09-09T11:51:34.848Z,3.85
2022-09-09T11:54:50.148Z,3.67
2022-09-09T11:57:25.884Z,3.83
2022-09-09T11:59:53.538Z,2.55
2022-09-09T12:02:32.255Z,2.92
2022-09-09T12:05:11.003Z,5.78
2022-09-09T12:07:43.795Z,3.97
2022-09-09T12:10:40.939Z,6.68
2022-09-09T12:13:24.359Z,6.47
2022-09-09T12:15:54.545Z,2.85
2022-09-09T12:18:26.294Z,4.25
2022-09-09T12:21:16.121Z,5.95
2022-09-09T12:23:58.889Z,4.82
2022-09-09T12:26:43.293Z,3.08
2022-09-09T12:29:12.990Z,3.70
2022-09-09T12:34:43.771Z,5.90
2022-09-09T12:37:27.554Z,5.28
2022-09-09T12:40:00.373Z,5.18
2022-09-09T12:42:28.407Z,3.17
2022-09-09T12:45:00.800Z,8.48
2022-09-09T12:47:32.016Z,8.32
2022-09-09T12:49:58.833Z,4.13
2022-09-09T12:52:31.236Z,4.70
2022-09-09T12:55:00.945Z,2.25
2022-09-09T13:00:07.899Z,6.85
2022-09-09T13:02:35.082Z,3.13
2022-09-09T13:05:37.589Z,9.32
2022-09-09T13:08:11.269Z,3.88
2022-09-09T13:10:55.430Z,3.60
2022-09-09T13:13:31.042Z,9.60
2022-09-09T13:16:00.138Z,3.65
2022-09-09T13:18:41.127Z,7.07
2022-09-09T13:21:07.804Z,8.82
2022-09-09T13:23:36.970Z,1.90
2022-09-09T13:26:08.683Z,3.95
2022-09-09T13:28:36.059Z,5.90
2022-09-09T13:31:04.500Z,2.15
2022-09-09T13:33:40.977Z,4.05
2022-09-09T13:36:13.256Z,4.57
2022-09-09T13:38:55.713Z,5.65
2022-09-09T13:41:46.751Z,4.25
2022-09-09T13:44:26.566Z,5.60
2022-09-09T13:47:10.554Z,6.47
2022-09-09T13:49:37.732Z,3.15
2022-09-09T13:52:12.942Z,4.65
2022-09-09T13:54:40.190Z,6.88
2022-09-09T13:57:15.922Z,8.25
2022-09-09T14:00:03.618Z,1.85
2022-09-09T14:02:29.296Z,3.60
2022-09-09T14:04:56.433Z,6.45
2022-09-09T14:07:23.087Z,2.83
2022-09-09T14:09:51.076Z,2.85
2022-09-09T14:12:17.799Z,2.95
2022-09-09T14:14:44.864Z,3.83
2022-09-09T14:17:11.717Z,2.80
2022-09-09T14:19:38.474Z,4.45
2022-09-09T14:22:05.080Z,3.40
2022-09-09T14:24:31.935Z,3.28
2022-09-09T14:26:58.539Z,3.47
2022-09-09T14:29:27.631Z,5.05
2022-09-09T14:31:54.259Z,2.55
2022-09-09T14:34:21.012Z,2.97
2022-09-09T14:36:48.307Z,2.75
2022-09-09T14:39:14.947Z,1.77
2022-09-09T14:41:41.584Z,3.58
2022-09-09T14:44:09.159Z,2.95
2022-09-09T14:46:35.849Z,5.35
2022-09-09T14:49:02.730Z,10.90
2022-09-09T14:51:29.381Z,8.23
2022-09-09T14:53:59.150Z,2.50
2022-09-09T14:56:28.187Z,3.13
2022-09-09T14:58:58.687Z,3.58
2022-09-09T15:01:28.324Z,3.00
2022-09-09T15:04:03.466Z,5.20
2022-09-09T15:06:34.123Z,5.30
2022-09-09T15:09:01.464Z,2.28
2022-09-09T15:11:31.561Z,3.28
2022-09-09T15:13:59.182Z,7.63
2022-09-09T15:16:28.735Z,2.75
2022-09-09T15:18:58.373Z,1.35
2022-09-09T15:23:53.368Z,1.52
2022-09-09T15:26:21.626Z,3.05
2022-09-09T15:28:50.600Z,1.52
2022-09-09T15:31:25.964Z,4.10
2022-09-09T15:34:01.465Z,6.93
2022-09-09T15:36:37.078Z,5.95
2022-09-09T15:39:06.383Z,4.07
2022-09-09T15:41:33.437Z,5.15
2022-09-09T15:44:01.539Z,3.33
2022-09-09T15:46:39.980Z,3.13
2022-09-09T15:49:15.254Z,2.83
2022-09-09T15:51:44.847Z,2.08
2022-09-09T15:54:14.767Z,3.20
2022-09-09T15:59:08.325Z,2.70
2022-09-09T16:01:36.724Z,3.45
2022-09-09T16:04:03.630Z,2.38
2022-09-09T16:06:31.024Z,4.40
2022-09-09T16:08:59.237Z,5.40
2022-09-09T16:11:35.986Z,2.13
2022-09-09T16:14:03.059Z,5.43
2022-09-09T16:16:30.964Z,3.50
2022-09-09T16:19:05.002Z,2.72
2022-09-09T16:21:36.855Z,2.90
2022-09-09T16:24:04.888Z,3.25
2022-09-09T16:26:34.435Z,3.60
2022-09-09T16:29:02.370Z,5.35
2022-09-09T16:31:30.406Z,2.17
2022-09-09T16:33:57.400Z,1.38
2022-09-09T16:36:26.198Z,3.33
2022-09-09T16:38:58.460Z,2.63
2022-09-09T16:41:26.784Z,3.90
2022-09-09T16:43:59.135Z,2.60
2022-09-09T16:46:28.576Z,3.10
2022-09-09T16:48:59.291Z,4.05
2022-09-09T16:51:34.208Z,3.83
2022-09-09T16:54:03.021Z,5.90
2022-09-09T16:56:33.965Z,3.50
2022-09-09T16:59:02.969Z,3.58
2022-09-09T17:01:32.629Z,3.25
2022-09-09T17:06:30.425Z,9.88
2022-09-09T17:09:05.675Z,4.68
2022-09-09T17:11:32.518Z,3.22
2022-09-09T17:14:01.226Z,4.05
2022-09-09T17:16:30.827Z,3.55
2022-09-09T17:21:27.251Z,1.92
2022-09-09T17:23:55.039Z,1.83
2022-09-09T17:26:23.994Z,4.45
2022-09-09T17:28:50.649Z,1.50
2022-09-09T17:31:18.975Z,2.47
2022-09-09T17:33:49.568Z,3.88
2022-09-09T17:36:17.631Z,2.63
2022-09-09T17:38:45.721Z,3.00
2022-09-09T17:41:16.062Z,3.65
2022-09-09T17:46:39.390Z,11.82
2022-09-09T17:49:09.974Z,3.88
2022-09-09T17:51:37.829Z,12.27
2022-09-09T17:54:08.659Z,6.28
2022-09-09T17:56:36.328Z,10.77
2022-09-09T17:59:06.234Z,11.95
2022-09-09T18:04:26.341Z,9.40
2022-09-09T18:06:54.306Z,3.47
2022-09-09T18:09:24.531Z,5.22
2022-09-09T18:14:45.861Z,5.50
2022-09-09T18:17:13.012Z,3.83
2022-09-09T18:19:40.058Z,4.20
2022-09-09T18:22:07.618Z,8.38
2022-09-09T18:24:36.711Z,13.03
2022-09-09T18:27:04.176Z,3.63
2022-09-09T18:29:31.240Z,9.43
2022-09-09T18:31:58.472Z,6.20
2022-09-09T18:34:28.704Z,5.05
2022-09-09T18:36:56.761Z,8.88
2022-09-09T18:39:29.443Z,2.95
2022-09-09T18:44:53.551Z,3.78
2022-09-09T18:47:21.725Z,5.90
2022-09-09T18:49:51.029Z,2.92
2022-09-09T18:52:18.063Z,3.67
2022-09-09T18:54:46.349Z,2.67
2022-09-09T18:57:13.386Z,2.25
2022-09-09T18:59:40.640Z,1.70
2022-09-09T19:02:07.832Z,5.75
2022-09-09T19:04:35.240Z,25.10
2022-09-09T19:07:02.310Z,26.08
2022-09-09T19:09:32.512Z,14.07
2022-09-09T19:12:00.702Z,2.38
2022-09-09T19:14:28.361Z,6.63
2022-09-09T19:16:56.432Z,15.55
2022-09-09T19:19:26.744Z,30.17
2022-09-09T19:21:58.404Z,3.63
2022-09-09T19:24:30.672Z,6.18
2022-09-09T19:27:02.015Z,15.35
2022-09-09T19:29:32.598Z,5.82
2022-09-09T19:32:36.803Z,7.90
2022-09-09T19:37:42.463Z,10.02
2022-09-09T19:40:11.455Z,3.53
2022-09-09T19:42:38.467Z,4.05
2022-09-09T19:45:07.015Z,2.78
2022-09-09T19:50:25.930Z,2.40
2022-09-09T19:52:53.090Z,6.00
2022-09-09T19:55:20.128Z,3.90
2022-09-09T19:57:47.181Z,2.00
2022-09-09T20:00:14.320Z,5.70
2022-09-09T20:02:58.084Z,4.13
2022-09-09T20:05:32.374Z,1.63
2022-09-09T20:10:52.279Z,3.65
2022-09-09T20:13:19.429Z,3.90
2022-09-09T20:15:46.932Z,1.85
2022-09-09T20:18:14.337Z,1.63
2022-09-09T20:20:43.019Z,2.55
2022-09-09T20:23:15.113Z,3.85
2022-09-09T20:25:42.141Z,4.82
2022-09-09T20:28:09.389Z,3.35
2022-09-09T20:30:38.391Z,2.08
2022-09-09T20:33:06.067Z,2.40
2022-09-09T20:35:33.498Z,3.20
2022-09-09T20:38:00.975Z,0.52
2022-09-09T20:40:31.552Z,2.33
2022-09-09T20:43:00.489Z,2.60
2022-09-09T20:45:27.626Z,1.08
2022-09-09T20:47:57.438Z,1.58
2022-09-09T20:52:52.571Z,1.45
2022-09-09T20:58:10.714Z,2.25
2022-09-09T21:00:37.861Z,0.80
2022-09-09T21:03:04.913Z,1.92
2022-09-09T21:05:32.370Z,3.35
2022-09-09T21:07:59.422Z,1.33
2022-09-09T21:10:26.768Z,0.90
2022-09-09T21:12:54.638Z,2.63
2022-09-09T21:15:21.584Z,0.70
2022-09-09T21:17:48.836Z,3.03
2022-09-09T21:20:16.091Z,2.72
2022-09-09T21:22:43.336Z,2.45
2022-09-09T21:25:10.389Z,2.55
2022-09-09T21:27:37.852Z,1.52
2022-09-09T21:30:05.503Z,2.85
2022-09-09T21:32:33.092Z,1.52
2022-09-09T21:35:00.312Z,1.55
2022-09-09T21:37:27.258Z,10.10
2022-09-09T21:39:54.877Z,13.60
2022-09-09T21:42:21.963Z,7.75
2022-09-09T21:44:49.012Z,6.05
2022-09-09T21:47:16.268Z,2.17
2022-09-09T21:49:43.518Z,10.02
2022-09-09T21:52:10.568Z,5.70
2022-09-09T21:54:39.767Z,5.50
2022-09-09T21:57:06.722Z,25.15
2022-09-09T21:59:33.981Z,10.45
2022-09-09T22:02:04.467Z,2.30
2022-09-09T22:04:31.333Z,10.45
2022-09-09T22:06:58.591Z,9.82
2022-09-09T22:09:25.629Z,4.55
2022-09-09T22:11:52.899Z,5.90
2022-09-09T22:14:20.032Z,11.52
2022-09-09T22:16:47.085Z,2.15
2022-09-09T22:19:14.161Z,5.88
2022-09-09T22:21:41.693Z,9.52
2022-09-09T22:24:08.936Z,4.75
2022-09-09T22:26:37.625Z,2.53
2022-09-09T22:29:06.211Z,4.18
2022-09-09T22:31:34.338Z,6.45
2022-09-09T22:34:01.634Z,4.85
2022-09-09T22:36:28.777Z,3.95
2022-09-09T22:38:56.958Z,6.63
2022-09-09T22:41:25.332Z,5.40
2022-09-09T22:43:52.590Z,20.70
2022-09-09T22:46:20.208Z,11.73
2022-09-09T22:48:47.600Z,7.43
2022-09-09T22:51:16.180Z,6.28
2022-09-09T22:53:45.174Z,5.20
2022-09-09T22:56:17.965Z,20.27
2022-09-09T22:58:46.440Z,8.98
2022-09-09T23:01:19.511Z,4.93
2022-09-09T23:03:47.752Z,5.32
2022-09-09T23:06:23.353Z,7.28
2022-09-09T23:08:57.670Z,8.63
2022-09-09T23:11:32.705Z,3.08
2022-09-09T23:14:06.922Z,6.28
2022-09-09T23:16:39.901Z,11.50
2022-09-09T23:22:03.698Z,4.80
2022-09-09T23:24:30.753Z,6.07
2022-09-09T23:26:57.709Z,6.43
2022-09-09T23:29:24.736Z,7.22
2022-09-09T23:31:51.486Z,7.70
2022-09-09T23:34:18.295Z,5.38
2022-09-09T23:36:45.017Z,7.18
2022-09-09T23:39:13.230Z,5.95
2022-09-09T23:41:40.261Z,10.25
2022-09-09T23:44:07.730Z,5.05
2022-09-09T23:46:35.331Z,6.07
2022-09-09T23:49:03.744Z,6.25
2022-09-09T23:51:31.451Z,5.82
2022-09-09T23:54:01.967Z,7.28
2022-09-09T23:56:32.318Z,7.82
2022-09-09T23:58:59.462Z,4.65
